sensor_id;sensor_type;location;lat;lon;timestamp;P1;durP1;ratioP1;P2;durP2;ratioP2
3873;SDS011;1952;50.872;6.692;2023-02-01T00:29:55;10.53;;;4.67;;
3873;SDS011;1952;50.872;6.692;2023-02-01T00:32:23;7.73;;;4.07;;
3873;SDS011;1952;50.872;6.692;2023-02-01T00:34:51;9.80;;;4.20;;
3873;SDS011;1952;50.872;6.692;2023-02-01T00:37:24;4.53;;;3.33;;
3873;SDS011;1952;50.872;6.692;2023-02-01T00:39:57;8.50;;;4.80;;
3873;SDS011;1952;50.872;6.692;2023-02-01T00:42:25;10.27;;;4.20;;
3873;SDS011;1952;50.872;6.692;2023-02-01T00:45:00;6.23;;;3.70;;
3873;SDS011;1952;50.872;6.692;2023-02-01T00:47:28;5.50;;;3.70;;
3873;SDS011;1952;50.872;6.692;2023-02-01T00:49:56;6.40;;;4.03;;
3873;SDS011;1952;50.872;6.692;2023-02-01T00:52:24;8.67;;;3.37;;
3873;SDS011;1952;50.872;6.692;2023-02-01T00:54:57;6.40;;;4.00;;
3873;SDS011;1952;50.872;6.692;2023-02-01T00:57:25;9.33;;;3.63;;
3873;SDS011;1952;50.872;6.692;2023-02-01T00:59:53;7.73;;;3.97;;
3873;SDS011;1952;50.872;6.692;2023-02-01T01:02:28;10.10;;;4.67;;
3873;SDS011;1952;50.872;6.692;2023-02-01T01:04:56;8.07;;;3.47;;
3873;SDS011;1952;50.872;6.692;2023-02-01T01:07:24;8.20;;;4.03;;
3873;SDS011;1952;50.872;6.692;2023-02-01T01:09:57;8.70;;;4.63;;
3873;SDS011;1952;50.872;6.692;2023-02-01T01:12:31;6.10;;;3.70;;
3873;SDS011;1952;50.872;6.692;2023-02-01T01:14:59;12.47;;;4.27;;
3873;SDS011;1952;50.872;6.692;2023-02-01T01:17:28;5.63;;;3.70;;
3873;SDS011;1952;50.872;6.692;2023-02-01T01:20:03;5.73;;;3.67;;
3873;SDS011;1952;50.872;6.692;2023-02-01T01:22:36;7.53;;;4.50;;
3873;SDS011;1952;50.872;6.692;2023-02-01T01:25:05;6.70;;;4.80;;
3873;SDS011;1952;50.872;6.692;2023-02-01T01:27:33;7.70;;;4.30;;
3873;SDS011;1952;50.872;6.692;2023-02-01T01:30:06;12.07;;;4.93;;
3873;SDS011;1952;50.872;6.692;2023-02-01T01:32:36;12.37;;;4.17;;
3873;SDS011;1952;50.872;6.692;2023-02-01T01:35:05;9.47;;;6.50;;
3873;SDS011;1952;50.872;6.692;2023-02-01T01:37:38;9.93;;;5.13;;
3873;SDS011;1952;50.872;6.692;2023-02-01T01:40:11;6.17;;;4.60;;
3873;SDS011;1952;50.872;6.692;2023-02-01T01:42:40;7.33;;;6.20;;
3873;SDS011;1952;50.872;6.692;2023-02-01T01:45:18;11.87;;;6.37;;
3873;SDS011;1952;50.872;6.692;2023-02-01T01:47:51;11.93;;;5.50;;
3873;SDS011;1952;50.872;6.692;2023-02-01T01:50:26;12.23;;;5.70;;
3873;SDS011;1952;50.872;6.692;2023-02-01T01:53:03;14.97;;;5.30;;
3873;SDS011;1952;50.872;6.692;2023-02-01T01:55:42;10.23;;;5.00;;
3873;SDS011;1952;50.872;6.692;2023-02-01T01:58:13;9.13;;;5.73;;
3873;SDS011;1952;50.872;6.692;2023-02-01T02:00:44;13.03;;;5.70;;
3873;SDS011;1952;50.872;6.692;2023-02-01T02:03:19;9.40;;;6.20;;
3873;SDS011;1952;50.872;6.692;2023-02-01T02:05:55;17.13;;;7.20;;
3873;SDS011;1952;50.872;6.692;2023-02-01T02:08:26;10.00;;;7.00;;
3873;SDS011;1952;50.872;6.692;2023-02-01T02:10:54;15.33;;;5.50;;
3873;SDS011;1952;50.872;6.692;2023-02-01T02:13:29;11.10;;;6.40;;
3873;SDS011;1952;50.872;6.692;2023-02-01T02:16:05;12.03;;;5.97;;
3873;SDS011;1952;50.872;6.692;2023-02-01T02:18:53;12.23;;;5.77;;
3873;SDS011;1952;50.872;6.692;2023-02-01T02:21:40;9.13;;;5.60;;
3873;SDS011;1952;50.872;6.692;2023-02-01T02:24:31;8.73;;;5.87;;
3873;SDS011;1952;50.872;6.692;2023-02-01T02:27:23;14.10;;;7.00;;
3873;SDS011;1952;50.872;6.692;2023-02-01T02:30:07;9.90;;;4.53;;
3873;SDS011;1952;50.872;6.692;2023-02-01T02:32:59;11.90;;;6.17;;
3873;SDS011;1952;50.872;6.692;2023-02-01T02:35:59;8.70;;;5.97;;
3873;SDS011;1952;50.872;6.692;2023-02-01T02:38:33;7.90;;;4.57;;
3873;SDS011;1952;50.872;6.692;2023-02-01T02:41:14;7.33;;;5.00;;
3873;SDS011;1952;50.872;6.692;2023-02-01T02:44:08;7.87;;;5.20;;
3873;SDS011;1952;50.872;6.692;2023-02-01T02:46:59;8.00;;;4.00;;
3873;SDS011;1952;50.872;6.692;2023-02-01T02:49:58;10.20;;;4.77;;
3873;SDS011;1952;50.872;6.692;2023-02-01T02:52:57;21.83;;;6.93;;
3873;SDS011;1952;50.872;6.692;2023-02-01T02:55:46;6.53;;;4.53;;
3873;SDS011;1952;50.872;6.692;2023-02-01T02:58:15;12.43;;;5.47;;
3873;SDS011;1952;50.872;6.692;2023-02-01T03:01:01;15.43;;;5.53;;
3873;SDS011;1952;50.872;6.692;2023-02-01T03:03:48;10.60;;;5.03;;
3873;SDS011;1952;50.872;6.692;2023-02-01T03:06:36;10.13;;;5.57;;
3873;SDS011;1952;50.872;6.692;2023-02-01T03:09:08;8.37;;;4.87;;
3873;SDS011;1952;50.872;6.692;2023-02-01T03:11:39;8.13;;;4.87;;
3873;SDS011;1952;50.872;6.692;2023-02-01T03:14:28;14.40;;;4.50;;
3873;SDS011;1952;50.872;6.692;2023-02-01T03:17:03;15.33;;;5.93;;
3873;SDS011;1952;50.872;6.692;2023-02-01T03:19:37;10.40;;;5.77;;
3873;SDS011;1952;50.872;6.692;2023-02-01T03:22:16;11.60;;;5.23;;
3873;SDS011;1952;50.872;6.692;2023-02-01T03:24:47;8.80;;;4.87;;
3873;SDS011;1952;50.872;6.692;2023-02-01T03:27:20;11.37;;;5.60;;
3873;SDS011;1952;50.872;6.692;2023-02-01T03:29:51;7.37;;;4.73;;
3873;SDS011;1952;50.872;6.692;2023-02-01T03:32:28;7.77;;;4.03;;
3873;SDS011;1952;50.872;6.692;2023-02-01T03:35:16;10.83;;;5.63;;
3873;SDS011;1952;50.872;6.692;2023-02-01T03:38:16;11.00;;;4.70;;
3873;SDS011;1952;50.872;6.692;2023-02-01T03:41:03;7.10;;;4.53;;
3873;SDS011;1952;50.872;6.692;2023-02-01T03:43:47;12.60;;;4.63;;
3873;SDS011;1952;50.872;6.692;2023-02-01T03:46:27;14.07;;;6.10;;
3873;SDS011;1952;50.872;6.692;2023-02-01T03:49:07;9.73;;;5.20;;
3873;SDS011;1952;50.872;6.692;2023-02-01T03:51:37;9.33;;;4.87;;
3873;SDS011;1952;50.872;6.692;2023-02-01T03:54:09;13.87;;;5.53;;
3873;SDS011;1952;50.872;6.692;2023-02-01T03:56:42;10.60;;;4.67;;
3873;SDS011;1952;50.872;6.692;2023-02-01T03:59:19;8.10;;;5.97;;
3873;SDS011;1952;50.872;6.692;2023-02-01T04:01:47;10.00;;;5.67;;
3873;SDS011;1952;50.872;6.692;2023-02-01T04:04:15;16.17;;;5.63;;
3873;SDS011;1952;50.872;6.692;2023-02-01T04:06:49;9.27;;;5.37;;
3873;SDS011;1952;50.872;6.692;2023-02-01T04:09:37;13.67;;;6.00;;
3873;SDS011;1952;50.872;6.692;2023-02-01T04:12:05;11.77;;;6.20;;
3873;SDS011;1952;50.872;6.692;2023-02-01T04:14:33;12.77;;;5.27;;
3873;SDS011;1952;50.872;6.692;2023-02-01T04:17:02;9.63;;;5.07;;
3873;SDS011;1952;50.872;6.692;2023-02-01T04:19:30;15.80;;;5.57;;
3873;SDS011;1952;50.872;6.692;2023-02-01T04:22:10;11.17;;;6.77;;
3873;SDS011;1952;50.872;6.692;2023-02-01T04:24:41;10.03;;;4.80;;
3873;SDS011;1952;50.872;6.692;2023-02-01T04:27:26;14.27;;;5.90;;
3873;SDS011;1952;50.872;6.692;2023-02-01T04:30:12;12.00;;;5.70;;
3873;SDS011;1952;50.872;6.692;2023-02-01T04:33:09;9.80;;;5.17;;
3873;SDS011;1952;50.872;6.692;2023-02-01T04:36:06;10.57;;;5.30;;
3873;SDS011;1952;50.872;6.692;2023-02-01T04:38:36;9.70;;;5.30;;
3873;SDS011;1952;50.872;6.692;2023-02-01T04:41:26;13.30;;;4.43;;
3873;SDS011;1952;50.872;6.692;2023-02-01T04:44:04;14.70;;;4.30;;
3873;SDS011;1952;50.872;6.692;2023-02-01T04:46:32;13.53;;;5.83;;
3873;SDS011;1952;50.872;6.692;2023-02-01T04:49:01;10.20;;;4.93;;
3873;SDS011;1952;50.872;6.692;2023-02-01T04:51:45;17.80;;;5.60;;
3873;SDS011;1952;50.872;6.692;2023-02-01T04:54:29;7.03;;;4.53;;
3873;SDS011;1952;50.872;6.692;2023-02-01T04:57:16;6.30;;;4.50;;
3873;SDS011;1952;50.872;6.692;2023-02-01T04:59:59;11.27;;;4.97;;
3873;SDS011;1952;50.872;6.692;2023-02-01T05:02:49;34.07;;;6.60;;
3873;SDS011;1952;50.872;6.692;2023-02-01T05:05:20;11.83;;;3.77;;
3873;SDS011;1952;50.872;6.692;2023-02-01T05:08:03;8.37;;;3.43;;
3873;SDS011;1952;50.872;6.692;2023-02-01T05:11:00;13.43;;;4.80;;
3873;SDS011;1952;50.872;6.692;2023-02-01T05:16:44;11.73;;;3.47;;
3873;SDS011;1952;50.872;6.692;2023-02-01T05:19:29;8.13;;;3.20;;
3873;SDS011;1952;50.872;6.692;2023-02-01T05:22:14;9.27;;;4.13;;
3873;SDS011;1952;50.872;6.692;2023-02-01T05:24:57;5.63;;;3.67;;
3873;SDS011;1952;50.872;6.692;2023-02-01T05:27:26;12.90;;;3.67;;
3873;SDS011;1952;50.872;6.692;2023-02-01T05:29:59;8.93;;;3.50;;
3873;SDS011;1952;50.872;6.692;2023-02-01T05:35:29;6.20;;;3.27;;
3873;SDS011;1952;50.872;6.692;2023-02-01T05:38:11;7.93;;;4.30;;
3873;SDS011;1952;50.872;6.692;2023-02-01T05:40:42;8.70;;;3.47;;
3873;SDS011;1952;50.872;6.692;2023-02-01T05:43:40;9.90;;;4.20;;
3873;SDS011;1952;50.872;6.692;2023-02-01T05:46:37;9.53;;;3.47;;
3873;SDS011;1952;50.872;6.692;2023-02-01T05:49:23;7.00;;;3.20;;
3873;SDS011;1952;50.872;6.692;2023-02-01T06:32:40;17.10;;;4.20;;
3873;SDS011;1952;50.872;6.692;2023-02-01T06:35:09;8.07;;;3.60;;
3873;SDS011;1952;50.872;6.692;2023-02-01T06:37:42;8.93;;;4.10;;
3873;SDS011;1952;50.872;6.692;2023-02-01T06:40:15;16.70;;;4.30;;
3873;SDS011;1952;50.872;6.692;2023-02-01T06:42:49;10.10;;;3.67;;
3873;SDS011;1952;50.872;6.692;2023-02-01T06:45:17;9.53;;;3.03;;
3873;SDS011;1952;50.872;6.692;2023-02-01T06:47:46;7.73;;;4.10;;
3873;SDS011;1952;50.872;6.692;2023-02-01T06:50:19;10.40;;;4.77;;
3873;SDS011;1952;50.872;6.692;2023-02-01T06:52:48;7.10;;;3.60;;
3873;SDS011;1952;50.872;6.692;2023-02-01T06:55:16;7.53;;;3.70;;
3873;SDS011;1952;50.872;6.692;2023-02-01T06:57:45;10.43;;;3.87;;
3873;SDS011;1952;50.872;6.692;2023-02-01T07:00:13;7.93;;;3.20;;
3873;SDS011;1952;50.872;6.692;2023-02-01T07:02:48;9.33;;;3.87;;
3873;SDS011;1952;50.872;6.692;2023-02-01T07:05:16;12.70;;;4.60;;
3873;SDS011;1952;50.872;6.692;2023-02-01T07:07:49;11.97;;;4.17;;
3873;SDS011;1952;50.872;6.692;2023-02-01T07:10:18;7.60;;;4.03;;
3873;SDS011;1952;50.872;6.692;2023-02-01T07:12:47;13.90;;;4.50;;
3873;SDS011;1952;50.872;6.692;2023-02-01T07:15:15;12.17;;;4.70;;
3873;SDS011;1952;50.872;6.692;2023-02-01T07:17:43;9.87;;;4.83;;
3873;SDS011;1952;50.872;6.692;2023-02-01T07:20:14;11.13;;;3.87;;
3873;SDS011;1952;50.872;6.692;2023-02-01T07:22:47;11.37;;;4.27;;
3873;SDS011;1952;50.872;6.692;2023-02-01T07:25:21;9.43;;;3.23;;
3873;SDS011;1952;50.872;6.692;2023-02-01T07:27:49;23.43;;;4.10;;
3873;SDS011;1952;50.872;6.692;2023-02-01T07:30:18;6.13;;;3.10;;
3873;SDS011;1952;50.872;6.692;2023-02-01T07:32:51;10.53;;;3.87;;
3873;SDS011;1952;50.872;6.692;2023-02-01T07:35:21;14.90;;;5.00;;
3873;SDS011;1952;50.872;6.692;2023-02-01T07:37:54;11.93;;;4.37;;
3873;SDS011;1952;50.872;6.692;2023-02-01T07:40:29;12.00;;;3.40;;
3873;SDS011;1952;50.872;6.692;2023-02-01T07:42:58;9.47;;;3.70;;
3873;SDS011;1952;50.872;6.692;2023-02-01T07:45:26;7.73;;;4.40;;
3873;SDS011;1952;50.872;6.692;2023-02-01T07:47:54;12.93;;;4.20;;
3873;SDS011;1952;50.872;6.692;2023-02-01T07:50:24;8.33;;;4.30;;
3873;SDS011;1952;50.872;6.692;2023-02-01T07:52:53;17.73;;;4.20;;
3873;SDS011;1952;50.872;6.692;2023-02-01T07:55:21;10.77;;;3.50;;
3873;SDS011;1952;50.872;6.692;2023-02-01T07:57:51;8.90;;;3.60;;
3873;SDS011;1952;50.872;6.692;2023-02-01T08:00:19;9.37;;;4.37;;
3873;SDS011;1952;50.872;6.692;2023-02-01T08:03:10;8.30;;;3.10;;
3873;SDS011;1952;50.872;6.692;2023-02-01T08:05:44;6.43;;;3.20;;
3873;SDS011;1952;50.872;6.692;2023-02-01T08:08:12;8.70;;;3.80;;
3873;SDS011;1952;50.872;6.692;2023-02-01T08:10:41;11.13;;;5.40;;
3873;SDS011;1952;50.872;6.692;2023-02-01T08:13:09;12.20;;;4.63;;
3873;SDS011;1952;50.872;6.692;2023-02-01T08:15:37;8.07;;;4.00;;
3873;SDS011;1952;50.872;6.692;2023-02-01T08:18:07;13.20;;;4.10;;
3873;SDS011;1952;50.872;6.692;2023-02-01T08:20:37;13.13;;;4.63;;
3873;SDS011;1952;50.872;6.692;2023-02-01T08:23:09;7.43;;;3.73;;
3873;SDS011;1952;50.872;6.692;2023-02-01T08:25:42;8.10;;;4.00;;
3873;SDS011;1952;50.872;6.692;2023-02-01T08:28:10;14.93;;;4.23;;
3873;SDS011;1952;50.872;6.692;2023-02-01T08:30:39;11.17;;;4.37;;
3873;SDS011;1952;50.872;6.692;2023-02-01T08:33:13;7.70;;;3.80;;
3873;SDS011;1952;50.872;6.692;2023-02-01T08:35:41;13.53;;;3.90;;
3873;SDS011;1952;50.872;6.692;2023-02-01T08:38:11;8.77;;;4.00;;
3873;SDS011;1952;50.872;6.692;2023-02-01T08:40:39;12.50;;;4.00;;
3873;SDS011;1952;50.872;6.692;2023-02-01T08:43:08;8.97;;;4.23;;
3873;SDS011;1952;50.872;6.692;2023-02-01T08:45:36;8.00;;;3.53;;
3873;SDS011;1952;50.872;6.692;2023-02-01T08:48:05;11.17;;;3.63;;
3873;SDS011;1952;50.872;6.692;2023-02-01T08:50:38;10.47;;;3.50;;
3873;SDS011;1952;50.872;6.692;2023-02-01T08:53:07;5.47;;;3.87;;
3873;SDS011;1952;50.872;6.692;2023-02-01T08:55:36;17.13;;;4.27;;
3873;SDS011;1952;50.872;6.692;2023-02-01T08:58:15;13.87;;;4.40;;
3873;SDS011;1952;50.872;6.692;2023-02-01T09:00:44;10.33;;;3.70;;
3873;SDS011;1952;50.872;6.692;2023-02-01T09:03:19;7.93;;;4.30;;
3873;SDS011;1952;50.872;6.692;2023-02-01T09:05:48;8.20;;;3.63;;
3873;SDS011;1952;50.872;6.692;2023-02-01T09:08:21;9.23;;;4.10;;
3873;SDS011;1952;50.872;6.692;2023-02-01T09:10:59;8.57;;;4.07;;
3873;SDS011;1952;50.872;6.692;2023-02-01T09:13:29;10.47;;;3.77;;
3873;SDS011;1952;50.872;6.692;2023-02-01T09:15:58;8.90;;;3.67;;
3873;SDS011;1952;50.872;6.692;2023-02-01T09:18:33;9.60;;;4.33;;
3873;SDS011;1952;50.872;6.692;2023-02-01T09:21:03;7.70;;;3.40;;
3873;SDS011;1952;50.872;6.692;2023-02-01T09:23:37;9.33;;;3.87;;
3873;SDS011;1952;50.872;6.692;2023-02-01T09:26:11;5.37;;;3.80;;
3873;SDS011;1952;50.872;6.692;2023-02-01T09:28:44;7.37;;;3.70;;
3873;SDS011;1952;50.872;6.692;2023-02-01T09:31:18;9.87;;;4.63;;
3873;SDS011;1952;50.872;6.692;2023-02-01T09:33:51;8.67;;;4.03;;
3873;SDS011;1952;50.872;6.692;2023-02-01T09:36:20;8.63;;;4.07;;
3873;SDS011;1952;50.872;6.692;2023-02-01T09:38:49;11.47;;;4.40;;
3873;SDS011;1952;50.872;6.692;2023-02-01T09:41:29;11.33;;;3.70;;
3873;SDS011;1952;50.872;6.692;2023-02-01T09:44:07;11.57;;;4.70;;
3873;SDS011;1952;50.872;6.692;2023-02-01T09:46:37;10.13;;;4.53;;
3873;SDS011;1952;50.872;6.692;2023-02-01T09:49:10;6.87;;;3.73;;
3873;SDS011;1952;50.872;6.692;2023-02-01T09:51:41;8.73;;;3.80;;
3873;SDS011;1952;50.872;6.692;2023-02-01T09:54:11;9.33;;;4.20;;
3873;SDS011;1952;50.872;6.692;2023-02-01T09:56:48;10.80;;;3.20;;
3873;SDS011;1952;50.872;6.692;2023-02-01T09:59:26;8.03;;;4.10;;
3873;SDS011;1952;50.872;6.692;2023-02-01T10:01:58;7.97;;;3.63;;
3873;SDS011;1952;50.872;6.692;2023-02-01T10:04:31;7.60;;;3.37;;
3873;SDS011;1952;50.872;6.692;2023-02-01T10:07:03;8.87;;;3.53;;
3873;SDS011;1952;50.872;6.692;2023-02-01T10:09:44;11.77;;;3.10;;
3873;SDS011;1952;50.872;6.692;2023-02-01T10:12:31;7.70;;;3.20;;
3873;SDS011;1952;50.872;6.692;2023-02-01T10:15:11;5.33;;;3.27;;
3873;SDS011;1952;50.872;6.692;2023-02-01T10:17:50;9.27;;;4.17;;
3873;SDS011;1952;50.872;6.692;2023-02-01T10:20:28;10.80;;;4.30;;
3873;SDS011;1952;50.872;6.692;2023-02-01T10:23:00;4.90;;;3.40;;
3873;SDS011;1952;50.872;6.692;2023-02-01T10:25:53;9.47;;;3.30;;
3873;SDS011;1952;50.872;6.692;2023-02-01T10:28:27;11.40;;;4.37;;
3873;SDS011;1952;50.872;6.692;2023-02-01T10:30:56;6.47;;;4.30;;
3873;SDS011;1952;50.872;6.692;2023-02-01T10:33:32;9.57;;;4.10;;
3873;SDS011;1952;50.872;6.692;2023-02-01T10:36:01;7.70;;;3.80;;
3873;SDS011;1952;50.872;6.692;2023-02-01T10:38:32;8.00;;;3.73;;
3873;SDS011;1952;50.872;6.692;2023-02-01T10:41:08;8.17;;;3.90;;
3873;SDS011;1952;50.872;6.692;2023-02-01T10:43:47;4.80;;;3.33;;
3873;SDS011;1952;50.872;6.692;2023-02-01T10:46:19;4.80;;;3.83;;
3873;SDS011;1952;50.872;6.692;2023-02-01T10:48:48;11.43;;;4.63;;
3873;SDS011;1952;50.872;6.692;2023-02-01T10:51:23;7.07;;;3.30;;
3873;SDS011;1952;50.872;6.692;2023-02-01T10:54:00;10.30;;;3.93;;
3873;SDS011;1952;50.872;6.692;2023-02-01T10:56:40;9.00;;;3.57;;
3873;SDS011;1952;50.872;6.692;2023-02-01T10:59:16;9.17;;;3.93;;
3873;SDS011;1952;50.872;6.692;2023-02-01T11:01:46;9.33;;;4.20;;
3873;SDS011;1952;50.872;6.692;2023-02-01T11:04:19;13.90;;;5.50;;
3873;SDS011;1952;50.872;6.692;2023-02-01T11:06:49;10.83;;;4.13;;
3873;SDS011;1952;50.872;6.692;2023-02-01T11:09:19;8.93;;;3.40;;
3873;SDS011;1952;50.872;6.692;2023-02-01T11:11:54;7.97;;;3.97;;
3873;SDS011;1952;50.872;6.692;2023-02-01T11:14:38;8.00;;;4.10;;
3873;SDS011;1952;50.872;6.692;2023-02-01T11:17:21;7.43;;;4.37;;
3873;SDS011;1952;50.872;6.692;2023-02-01T11:19:59;12.87;;;4.03;;
3873;SDS011;1952;50.872;6.692;2023-02-01T11:22:28;9.37;;;4.30;;
3873;SDS011;1952;50.872;6.692;2023-02-01T11:25:02;11.63;;;4.23;;
3873;SDS011;1952;50.872;6.692;2023-02-01T11:27:40;6.90;;;3.70;;
3873;SDS011;1952;50.872;6.692;2023-02-01T11:30:25;7.10;;;3.40;;
3873;SDS011;1952;50.872;6.692;2023-02-01T11:33:00;11.03;;;3.70;;
3873;SDS011;1952;50.872;6.692;2023-02-01T11:35:31;5.70;;;4.20;;
3873;SDS011;1952;50.872;6.692;2023-02-01T11:38:11;10.33;;;4.47;;
3873;SDS011;1952;50.872;6.692;2023-02-01T11:40:39;5.57;;;3.53;;
3873;SDS011;1952;50.872;6.692;2023-02-01T11:43:14;6.37;;;3.90;;
3873;SDS011;1952;50.872;6.692;2023-02-01T11:45:53;9.73;;;3.80;;
3873;SDS011;1952;50.872;6.692;2023-02-01T11:48:22;9.17;;;4.40;;
3873;SDS011;1952;50.872;6.692;2023-02-01T11:51:02;10.27;;;3.37;;
3873;SDS011;1952;50.872;6.692;2023-02-01T11:53:44;12.73;;;3.70;;
3873;SDS011;1952;50.872;6.692;2023-02-01T12:43:40;9.80;;;3.43;;
3873;SDS011;1952;50.872;6.692;2023-02-01T12:46:12;7.97;;;3.90;;
3873;SDS011;1952;50.872;6.692;2023-02-01T12:48:47;10.57;;;3.33;;
3873;SDS011;1952;50.872;6.692;2023-02-01T12:51:28;6.10;;;3.40;;
3873;SDS011;1952;50.872;6.692;2023-02-01T12:53:59;5.83;;;3.13;;
3873;SDS011;1952;50.872;6.692;2023-02-01T12:56:30;9.93;;;3.77;;
3873;SDS011;1952;50.872;6.692;2023-02-01T12:59:01;4.07;;;2.87;;
3873;SDS011;1952;50.872;6.692;2023-02-01T13:01:33;7.10;;;4.33;;
3873;SDS011;1952;50.872;6.692;2023-02-01T13:04:03;6.60;;;3.60;;
3873;SDS011;1952;50.872;6.692;2023-02-01T13:06:37;7.17;;;3.87;;
3873;SDS011;1952;50.872;6.692;2023-02-01T13:09:19;5.50;;;3.27;;
3873;SDS011;1952;50.872;6.692;2023-02-01T13:11:49;6.03;;;3.60;;
3873;SDS011;1952;50.872;6.692;2023-02-01T13:14:25;6.60;;;3.43;;
3873;SDS011;1952;50.872;6.692;2023-02-01T13:16:57;6.63;;;3.93;;
3873;SDS011;1952;50.872;6.692;2023-02-01T13:19:36;5.47;;;2.83;;
3873;SDS011;1952;50.872;6.692;2023-02-01T13:22:12;9.87;;;3.67;;
3873;SDS011;1952;50.872;6.692;2023-02-01T13:24:42;9.17;;;3.33;;
3873;SDS011;1952;50.872;6.692;2023-02-01T13:27:11;9.60;;;3.90;;
3873;SDS011;1952;50.872;6.692;2023-02-01T13:29:48;14.07;;;3.10;;
3873;SDS011;1952;50.872;6.692;2023-02-01T13:32:23;10.33;;;3.90;;
3873;SDS011;1952;50.872;6.692;2023-02-01T13:35:19;9.43;;;4.17;;
3873;SDS011;1952;50.872;6.692;2023-02-01T13:38:01;10.70;;;3.97;;
3873;SDS011;1952;50.872;6.692;2023-02-01T13:40:39;9.10;;;4.00;;
3873;SDS011;1952;50.872;6.692;2023-02-01T13:43:14;5.07;;;2.50;;
3873;SDS011;1952;50.872;6.692;2023-02-01T13:45:47;10.33;;;4.17;;
3873;SDS011;1952;50.872;6.692;2023-02-01T13:48:18;8.27;;;3.10;;
3873;SDS011;1952;50.872;6.692;2023-02-01T13:50:49;7.67;;;3.20;;
3873;SDS011;1952;50.872;6.692;2023-02-01T13:53:27;9.93;;;3.67;;
3873;SDS011;1952;50.872;6.692;2023-02-01T13:55:56;8.63;;;3.50;;
3873;SDS011;1952;50.872;6.692;2023-02-01T13:58:33;7.93;;;3.70;;
3873;SDS011;1952;50.872;6.692;2023-02-01T14:04:00;7.53;;;2.93;;
3873;SDS011;1952;50.872;6.692;2023-02-01T14:06:40;7.10;;;3.07;;
3873;SDS011;1952;50.872;6.692;2023-02-01T14:15:00;9.73;;;3.07;;
3873;SDS011;1952;50.872;6.692;2023-02-01T14:17:42;6.47;;;2.57;;
3873;SDS011;1952;50.872;6.692;2023-02-01T14:23:24;4.67;;;3.00;;
3873;SDS011;1952;50.872;6.692;2023-02-01T14:28:42;9.07;;;3.40;;
3873;SDS011;1952;50.872;6.692;2023-02-01T14:31:16;8.07;;;3.20;;
3873;SDS011;1952;50.872;6.692;2023-02-01T14:33:45;11.90;;;4.30;;
3873;SDS011;1952;50.872;6.692;2023-02-01T14:36:14;7.77;;;3.10;;
3873;SDS011;1952;50.872;6.692;2023-02-01T14:38:48;5.67;;;3.10;;
3873;SDS011;1952;50.872;6.692;2023-02-01T14:41:24;12.13;;;2.80;;
3873;SDS011;1952;50.872;6.692;2023-02-01T14:49:32;11.37;;;3.20;;
3873;SDS011;1952;50.872;6.692;2023-02-01T14:52:02;5.10;;;3.27;;
3873;SDS011;1952;50.872;6.692;2023-02-01T14:54:34;4.93;;;3.43;;
3873;SDS011;1952;50.872;6.692;2023-02-01T14:57:02;6.50;;;3.60;;
3873;SDS011;1952;50.872;6.692;2023-02-01T14:59:31;12.60;;;3.00;;
3873;SDS011;1952;50.872;6.692;2023-02-01T15:02:07;6.40;;;3.27;;
3873;SDS011;1952;50.872;6.692;2023-02-01T15:04:44;9.97;;;2.80;;
3873;SDS011;1952;50.872;6.692;2023-02-01T15:07:12;5.60;;;2.57;;
3873;SDS011;1952;50.872;6.692;2023-02-01T15:09:44;6.93;;;3.57;;
3873;SDS011;1952;50.872;6.692;2023-02-01T15:12:15;6.70;;;3.50;;
3873;SDS011;1952;50.872;6.692;2023-02-01T15:14:47;9.60;;;2.97;;
3873;SDS011;1952;50.872;6.692;2023-02-01T15:17:17;6.30;;;2.50;;
3873;SDS011;1952;50.872;6.692;2023-02-01T15:19:55;10.63;;;5.07;;
3873;SDS011;1952;50.872;6.692;2023-02-01T15:22:23;5.10;;;2.67;;
3873;SDS011;1952;50.872;6.692;2023-02-01T15:24:54;5.97;;;2.30;;
3873;SDS011;1952;50.872;6.692;2023-02-01T15:27:23;5.70;;;2.57;;
3873;SDS011;1952;50.872;6.692;2023-02-01T15:29:51;8.90;;;3.00;;
3873;SDS011;1952;50.872;6.692;2023-02-01T15:32:29;9.57;;;2.40;;
3873;SDS011;1952;50.872;6.692;2023-02-01T15:34:58;7.93;;;2.70;;
3873;SDS011;1952;50.872;6.692;2023-02-01T15:37:28;4.50;;;2.37;;
3873;SDS011;1952;50.872;6.692;2023-02-01T15:40:17;4.97;;;2.53;;
3873;SDS011;1952;50.872;6.692;2023-02-01T15:42:53;5.80;;;2.83;;
3873;SDS011;1952;50.872;6.692;2023-02-01T15:45:27;11.30;;;3.07;;
3873;SDS011;1952;50.872;6.692;2023-02-01T15:47:56;3.73;;;2.20;;
3873;SDS011;1952;50.872;6.692;2023-02-01T15:50:30;6.63;;;2.30;;
3873;SDS011;1952;50.872;6.692;2023-02-01T15:52:59;7.70;;;3.10;;
3873;SDS011;1952;50.872;6.692;2023-02-01T15:55:33;4.73;;;3.80;;
3873;SDS011;1952;50.872;6.692;2023-02-01T15:58:04;6.20;;;3.10;;
3873;SDS011;1952;50.872;6.692;2023-02-01T16:00:35;4.40;;;2.50;;
3873;SDS011;1952;50.872;6.692;2023-02-01T16:03:23;7.30;;;3.03;;
3873;SDS011;1952;50.872;6.692;2023-02-01T16:05:57;5.07;;;2.63;;
3873;SDS011;1952;50.872;6.692;2023-02-01T16:08:27;9.40;;;3.03;;
3873;SDS011;1952;50.872;6.692;2023-02-01T16:11:01;11.13;;;3.80;;
3873;SDS011;1952;50.872;6.692;2023-02-01T16:13:29;8.20;;;2.73;;
3873;SDS011;1952;50.872;6.692;2023-02-01T16:15:57;10.80;;;3.00;;
3873;SDS011;1952;50.872;6.692;2023-02-01T16:18:25;5.10;;;2.83;;
3873;SDS011;1952;50.872;6.692;2023-02-01T16:20:54;10.23;;;3.87;;
3873;SDS011;1952;50.872;6.692;2023-02-01T16:23:22;8.63;;;2.90;;
3873;SDS011;1952;50.872;6.692;2023-02-01T16:25:50;9.20;;;2.93;;
3873;SDS011;1952;50.872;6.692;2023-02-01T16:28:20;9.00;;;3.17;;
3873;SDS011;1952;50.872;6.692;2023-02-01T16:30:48;12.53;;;2.83;;
3873;SDS011;1952;50.872;6.692;2023-02-01T16:33:18;4.30;;;2.70;;
3873;SDS011;1952;50.872;6.692;2023-02-01T16:35:48;6.03;;;3.00;;
3873;SDS011;1952;50.872;6.692;2023-02-01T16:38:17;4.60;;;2.87;;
3873;SDS011;1952;50.872;6.692;2023-02-01T16:40:48;5.60;;;2.60;;
3873;SDS011;1952;50.872;6.692;2023-02-01T16:43:17;8.90;;;3.03;;
3873;SDS011;1952;50.872;6.692;2023-02-01T16:45:48;4.80;;;3.00;;
3873;SDS011;1952;50.872;6.692;2023-02-01T16:48:17;5.80;;;2.80;;
3873;SDS011;1952;50.872;6.692;2023-02-01T16:50:47;6.03;;;3.10;;
3873;SDS011;1952;50.872;6.692;2023-02-01T16:53:16;7.87;;;3.50;;
3873;SDS011;1952;50.872;6.692;2023-02-01T16:55:45;10.70;;;3.50;;
3873;SDS011;1952;50.872;6.692;2023-02-01T16:58:15;8.70;;;3.60;;
3873;SDS011;1952;50.872;6.692;2023-02-01T17:00:44;7.93;;;2.63;;
3873;SDS011;1952;50.872;6.692;2023-02-01T17:03:14;7.77;;;3.33;;
3873;SDS011;1952;50.872;6.692;2023-02-01T17:05:43;6.37;;;3.13;;
3873;SDS011;1952;50.872;6.692;2023-02-01T17:08:13;8.33;;;3.27;;
3873;SDS011;1952;50.872;6.692;2023-02-01T17:10:42;8.00;;;5.17;;
3873;SDS011;1952;50.872;6.692;2023-02-01T17:13:11;9.77;;;2.97;;
3873;SDS011;1952;50.872;6.692;2023-02-01T17:15:40;7.30;;;3.13;;
3873;SDS011;1952;50.872;6.692;2023-02-01T17:18:12;8.87;;;3.60;;
3873;SDS011;1952;50.872;6.692;2023-02-01T17:20:43;8.90;;;4.30;;
3873;SDS011;1952;50.872;6.692;2023-02-01T17:23:14;6.10;;;3.63;;
3873;SDS011;1952;50.872;6.692;2023-02-01T17:25:44;8.80;;;3.13;;
3873;SDS011;1952;50.872;6.692;2023-02-01T17:28:13;7.80;;;3.00;;
3873;SDS011;1952;50.872;6.692;2023-02-01T17:30:41;9.30;;;3.70;;
3873;SDS011;1952;50.872;6.692;2023-02-01T17:33:11;9.30;;;2.80;;
3873;SDS011;1952;50.872;6.692;2023-02-01T17:35:49;3.97;;;2.97;;
3873;SDS011;1952;50.872;6.692;2023-02-01T17:38:17;7.07;;;3.60;;
3873;SDS011;1952;50.872;6.692;2023-02-01T17:40:45;4.77;;;3.30;;
3873;SDS011;1952;50.872;6.692;2023-02-01T17:43:14;7.63;;;3.73;;
3873;SDS011;1952;50.872;6.692;2023-02-01T17:45:48;6.70;;;3.27;;
3873;SDS011;1952;50.872;6.692;2023-02-01T17:48:18;4.30;;;3.13;;
3873;SDS011;1952;50.872;6.692;2023-02-01T17:50:47;7.70;;;3.27;;
3873;SDS011;1952;50.872;6.692;2023-02-01T17:53:19;4.27;;;2.63;;
3873;SDS011;1952;50.872;6.692;2023-02-01T18:35:16;5.10;;;3.90;;
3873;SDS011;1952;50.872;6.692;2023-02-01T18:37:45;14.13;;;5.10;;
3873;SDS011;1952;50.872;6.692;2023-02-01T18:40:14;10.20;;;4.67;;
3873;SDS011;1952;50.872;6.692;2023-02-01T18:42:48;11.27;;;3.80;;
3873;SDS011;1952;50.872;6.692;2023-02-01T18:45:20;7.80;;;4.17;;
3873;SDS011;1952;50.872;6.692;2023-02-01T18:47:53;10.93;;;4.43;;
3873;SDS011;1952;50.872;6.692;2023-02-01T18:50:23;8.97;;;4.30;;
3873;SDS011;1952;50.872;6.692;2023-02-01T18:52:57;10.10;;;4.10;;
3873;SDS011;1952;50.872;6.692;2023-02-01T18:55:31;10.50;;;4.43;;